sensor_id;sensor_type;location;lat;lon;timestamp;P1;durP1;ratioP1;P2;durP2;ratioP2
52380;SDS011;38310;52.796;6.942;2023-04-06T00:00:33;11.57;;;9.32;;
52380;SDS011;38310;52.796;6.942;2023-04-06T00:02:59;13.07;;;10.15;;
52380;SDS011;38310;52.796;6.942;2023-04-06T00:05:25;10.90;;;9.80;;
52380;SDS011;38310;52.796;6.942;2023-04-06T00:07:52;11.38;;;9.68;;
52380;SDS011;38310;52.796;6.942;2023-04-06T00:10:20;12.38;;;9.43;;
52380;SDS011;38310;52.796;6.942;2023-04-06T00:12:46;13.60;;;10.88;;
52380;SDS011;38310;52.796;6.942;2023-04-06T00:15:12;12.20;;;9.57;;
52380;SDS011;38310;52.796;6.942;2023-04-06T00:17:37;13.65;;;9.82;;
52380;SDS011;38310;52.796;6.942;2023-04-06T00:20:03;10.70;;;9.15;;
52380;SDS011;38310;52.796;6.942;2023-04-06T00:22:29;12.23;;;9.85;;
52380;SDS011;38310;52.796;6.942;2023-04-06T00:24:55;14.13;;;10.15;;
52380;SDS011;38310;52.796;6.942;2023-04-06T00:27:21;12.23;;;8.95;;
52380;SDS011;38310;52.796;6.942;2023-04-06T00:29:47;11.52;;;9.85;;
52380;SDS011;38310;52.796;6.942;2023-04-06T00:32:12;10.68;;;9.48;;
52380;SDS011;38310;52.796;6.942;2023-04-06T00:34:38;11.57;;;9.68;;
52380;SDS011;38310;52.796;6.942;2023-04-06T00:37:04;11.40;;;9.77;;
52380;SDS011;38310;52.796;6.942;2023-04-06T00:39:29;11.73;;;9.40;;
52380;SDS011;38310;52.796;6.942;2023-04-06T00:41:55;12.40;;;9.85;;
52380;SDS011;38310;52.796;6.942;2023-04-06T00:44:21;10.43;;;9.27;;
52380;SDS011;38310;52.796;6.942;2023-04-06T00:46:47;12.27;;;9.75;;
52380;SDS011;38310;52.796;6.942;2023-04-06T00:49:13;12.25;;;10.60;;
52380;SDS011;38310;52.796;6.942;2023-04-06T00:51:39;11.18;;;9.32;;
52380;SDS011;38310;52.796;6.942;2023-04-06T00:54:05;13.90;;;10.93;;
52380;SDS011;38310;52.796;6.942;2023-04-06T00:56:30;12.52;;;9.98;;
52380;SDS011;38310;52.796;6.942;2023-04-06T00:58:56;11.13;;;9.75;;
52380;SDS011;38310;52.796;6.942;2023-04-06T01:01:23;13.75;;;9.93;;
52380;SDS011;38310;52.796;6.942;2023-04-06T01:03:49;10.95;;;9.55;;
52380;SDS011;38310;52.796;6.942;2023-04-06T01:06:15;10.57;;;9.07;;
52380;SDS011;38310;52.796;6.942;2023-04-06T01:08:41;12.52;;;10.30;;
52380;SDS011;38310;52.796;6.942;2023-04-06T01:11:07;10.80;;;9.60;;
52380;SDS011;38310;52.796;6.942;2023-04-06T01:13:33;13.73;;;9.95;;
52380;SDS011;38310;52.796;6.942;2023-04-06T01:15:58;13.75;;;10.25;;
52380;SDS011;38310;52.796;6.942;2023-04-06T01:18:28;10.70;;;9.52;;
52380;SDS011;38310;52.796;6.942;2023-04-06T01:20:54;12.20;;;9.32;;
52380;SDS011;38310;52.796;6.942;2023-04-06T01:23:20;12.68;;;10.00;;
52380;SDS011;38310;52.796;6.942;2023-04-06T01:25:45;11.80;;;9.82;;
52380;SDS011;38310;52.796;6.942;2023-04-06T01:28:11;12.13;;;10.00;;
52380;SDS011;38310;52.796;6.942;2023-04-06T01:30:37;11.23;;;9.93;;
52380;SDS011;38310;52.796;6.942;2023-04-06T01:33:03;11.35;;;10.10;;
52380;SDS011;38310;52.796;6.942;2023-04-06T01:35:29;11.95;;;9.85;;
52380;SDS011;38310;52.796;6.942;2023-04-06T01:37:55;11.27;;;10.02;;
52380;SDS011;38310;52.796;6.942;2023-04-06T01:40:21;12.70;;;9.88;;
52380;SDS011;38310;52.796;6.942;2023-04-06T01:42:47;11.82;;;10.35;;
52380;SDS011;38310;52.796;6.942;2023-04-06T01:45:13;11.38;;;9.68;;
52380;SDS011;38310;52.796;6.942;2023-04-06T01:47:38;11.00;;;9.63;;
52380;SDS011;38310;52.796;6.942;2023-04-06T01:50:04;10.40;;;9.25;;
52380;SDS011;38310;52.796;6.942;2023-04-06T01:52:31;12.70;;;9.88;;
52380;SDS011;38310;52.796;6.942;2023-04-06T01:54:58;11.75;;;9.48;;
52380;SDS011;38310;52.796;6.942;2023-04-06T01:57:23;15.32;;;10.80;;
52380;SDS011;38310;52.796;6.942;2023-04-06T01:59:50;12.85;;;10.10;;
52380;SDS011;38310;52.796;6.942;2023-04-06T02:02:16;10.75;;;9.63;;
52380;SDS011;38310;52.796;6.942;2023-04-06T02:04:42;11.25;;;9.52;;
52380;SDS011;38310;52.796;6.942;2023-04-06T02:07:08;10.75;;;9.57;;
52380;SDS011;38310;52.796;6.942;2023-04-06T02:09:34;12.40;;;10.50;;
52380;SDS011;38310;52.796;6.942;2023-04-06T02:12:00;13.93;;;10.52;;
52380;SDS011;38310;52.796;6.942;2023-04-06T02:14:26;13.57;;;10.25;;
52380;SDS011;38310;52.796;6.942;2023-04-06T02:16:52;13.93;;;10.13;;
52380;SDS011;38310;52.796;6.942;2023-04-06T02:19:18;12.10;;;9.95;;
52380;SDS011;38310;52.796;6.942;2023-04-06T02:21:44;12.40;;;9.95;;
52380;SDS011;38310;52.796;6.942;2023-04-06T02:24:10;11.82;;;10.07;;
52380;SDS011;38310;52.796;6.942;2023-04-06T02:26:36;11.55;;;10.20;;
52380;SDS011;38310;52.796;6.942;2023-04-06T02:29:01;13.13;;;9.63;;
52380;SDS011;38310;52.796;6.942;2023-04-06T02:31:27;14.50;;;10.73;;
52380;SDS011;38310;52.796;6.942;2023-04-06T02:33:53;13.27;;;9.80;;
52380;SDS011;38310;52.796;6.942;2023-04-06T02:36:19;12.10;;;10.63;;
52380;SDS011;38310;52.796;6.942;2023-04-06T02:38:45;10.75;;;9.63;;
52380;SDS011;38310;52.796;6.942;2023-04-06T02:41:11;14.88;;;10.68;;
52380;SDS011;38310;52.796;6.942;2023-04-06T02:43:36;11.35;;;9.90;;
52380;SDS011;38310;52.796;6.942;2023-04-06T02:46:02;11.73;;;10.00;;
52380;SDS011;38310;52.796;6.942;2023-04-06T02:48:28;13.77;;;10.77;;
52380;SDS011;38310;52.796;6.942;2023-04-06T02:50:54;13.10;;;10.05;;
52380;SDS011;38310;52.796;6.942;2023-04-06T02:53:19;14.45;;;9.60;;
52380;SDS011;38310;52.796;6.942;2023-04-06T02:55:45;14.85;;;10.30;;
52380;SDS011;38310;52.796;6.942;2023-04-06T02:58:11;13.88;;;9.60;;
52380;SDS011;38310;52.796;6.942;2023-04-06T03:00:36;11.43;;;9.82;;
52380;SDS011;38310;52.796;6.942;2023-04-06T03:03:02;15.18;;;10.52;;
52380;SDS011;38310;52.796;6.942;2023-04-06T03:05:28;12.40;;;10.07;;
52380;SDS011;38310;52.796;6.942;2023-04-06T03:07:54;12.50;;;9.68;;
52380;SDS011;38310;52.796;6.942;2023-04-06T03:10:20;12.68;;;10.52;;
52380;SDS011;38310;52.796;6.942;2023-04-06T03:12:45;12.10;;;10.07;;
52380;SDS011;38310;52.796;6.942;2023-04-06T03:15:11;11.95;;;9.70;;
52380;SDS011;38310;52.796;6.942;2023-04-06T03:17:37;11.63;;;9.77;;
52380;SDS011;38310;52.796;6.942;2023-04-06T03:20:03;12.52;;;9.82;;
52380;SDS011;38310;52.796;6.942;2023-04-06T03:22:29;12.43;;;10.38;;
52380;SDS011;38310;52.796;6.942;2023-04-06T03:24:54;12.13;;;10.43;;
52380;SDS011;38310;52.796;6.942;2023-04-06T03:27:20;12.35;;;9.60;;
52380;SDS011;38310;52.796;6.942;2023-04-06T03:29:46;12.40;;;10.73;;
52380;SDS011;38310;52.796;6.942;2023-04-06T03:32:12;15.27;;;10.65;;
52380;SDS011;38310;52.796;6.942;2023-04-06T03:34:37;11.98;;;9.68;;
52380;SDS011;38310;52.796;6.942;2023-04-06T03:37:04;11.02;;;9.63;;
52380;SDS011;38310;52.796;6.942;2023-04-06T03:39:29;13.07;;;10.32;;
52380;SDS011;38310;52.796;6.942;2023-04-06T03:41:55;13.27;;;10.38;;
52380;SDS011;38310;52.796;6.942;2023-04-06T03:44:21;14.73;;;10.18;;
52380;SDS011;38310;52.796;6.942;2023-04-06T03:46:47;14.35;;;10.38;;
52380;SDS011;38310;52.796;6.942;2023-04-06T03:49:12;12.35;;;9.45;;
52380;SDS011;38310;52.796;6.942;2023-04-06T03:51:38;12.95;;;9.93;;
52380;SDS011;38310;52.796;6.942;2023-04-06T03:54:04;12.88;;;10.30;;
52380;SDS011;38310;52.796;6.942;2023-04-06T03:56:30;13.98;;;10.18;;
52380;SDS011;38310;52.796;6.942;2023-04-06T03:58:56;13.65;;;10.43;;
52380;SDS011;38310;52.796;6.942;2023-04-06T04:01:21;15.35;;;10.20;;
52380;SDS011;38310;52.796;6.942;2023-04-06T04:03:47;15.18;;;10.38;;
52380;SDS011;38310;52.796;6.942;2023-04-06T04:06:13;17.05;;;11.15;;
52380;SDS011;38310;52.796;6.942;2023-04-06T04:08:38;15.43;;;10.98;;
52380;SDS011;38310;52.796;6.942;2023-04-06T04:11:04;16.02;;;11.20;;
52380;SDS011;38310;52.796;6.942;2023-04-06T04:13:30;15.68;;;11.32;;
52380;SDS011;38310;52.796;6.942;2023-04-06T04:15:56;12.60;;;10.55;;
52380;SDS011;38310;52.796;6.942;2023-04-06T04:18:21;14.98;;;10.95;;
52380;SDS011;38310;52.796;6.942;2023-04-06T04:20:47;15.13;;;11.15;;
52380;SDS011;38310;52.796;6.942;2023-04-06T04:23:13;13.50;;;10.88;;
52380;SDS011;38310;52.796;6.942;2023-04-06T04:25:39;15.10;;;11.65;;
52380;SDS011;38310;52.796;6.942;2023-04-06T04:28:04;14.55;;;10.65;;
52380;SDS011;38310;52.796;6.942;2023-04-06T04:30:30;12.75;;;10.63;;
52380;SDS011;38310;52.796;6.942;2023-04-06T04:32:56;13.20;;;10.60;;
52380;SDS011;38310;52.796;6.942;2023-04-06T04:35:22;15.23;;;10.20;;
52380;SDS011;38310;52.796;6.942;2023-04-06T04:37:47;15.10;;;11.13;;
52380;SDS011;38310;52.796;6.942;2023-04-06T04:40:13;13.95;;;10.75;;
52380;SDS011;38310;52.796;6.942;2023-04-06T04:42:39;16.45;;;11.77;;
52380;SDS011;38310;52.796;6.942;2023-04-06T04:45:05;13.93;;;10.80;;
52380;SDS011;38310;52.796;6.942;2023-04-06T04:47:31;15.20;;;11.73;;
52380;SDS011;38310;52.796;6.942;2023-04-06T04:49:57;15.07;;;11.23;;
52380;SDS011;38310;52.796;6.942;2023-04-06T04:52:22;12.88;;;10.60;;
52380;SDS011;38310;52.796;6.942;2023-04-06T04:54:48;16.13;;;11.68;;
52380;SDS011;38310;52.796;6.942;2023-04-06T04:57:14;15.02;;;11.18;;
52380;SDS011;38310;52.796;6.942;2023-04-06T04:59:40;16.08;;;12.55;;
52380;SDS011;38310;52.796;6.942;2023-04-06T05:02:05;14.80;;;12.07;;
52380;SDS011;38310;52.796;6.942;2023-04-06T05:04:31;16.02;;;12.02;;
52380;SDS011;38310;52.796;6.942;2023-04-06T05:07:06;16.10;;;11.73;;
52380;SDS011;38310;52.796;6.942;2023-04-06T05:09:33;14.60;;;11.73;;
52380;SDS011;38310;52.796;6.942;2023-04-06T05:11:59;16.65;;;12.70;;
52380;SDS011;38310;52.796;6.942;2023-04-06T05:14:26;13.88;;;11.90;;
52380;SDS011;38310;52.796;6.942;2023-04-06T05:16:52;15.30;;;11.20;;
52380;SDS011;38310;52.796;6.942;2023-04-06T05:19:18;13.80;;;11.45;;
52380;SDS011;38310;52.796;6.942;2023-04-06T05:21:44;17.58;;;11.70;;
52380;SDS011;38310;52.796;6.942;2023-04-06T05:24:10;16.60;;;12.07;;
52380;SDS011;38310;52.796;6.942;2023-04-06T05:26:36;15.45;;;12.15;;
52380;SDS011;38310;52.796;6.942;2023-04-06T05:29:02;14.95;;;11.68;;
52380;SDS011;38310;52.796;6.942;2023-04-06T05:31:27;16.85;;;12.27;;
52380;SDS011;38310;52.796;6.942;2023-04-06T05:33:54;14.30;;;10.57;;
52380;SDS011;38310;52.796;6.942;2023-04-06T05:36:21;17.67;;;11.77;;
52380;SDS011;38310;52.796;6.942;2023-04-06T05:38:47;16.63;;;12.68;;
52380;SDS011;38310;52.796;6.942;2023-04-06T05:41:13;16.63;;;11.63;;
52380;SDS011;38310;52.796;6.942;2023-04-06T05:43:38;16.48;;;12.35;;
52380;SDS011;38310;52.796;6.942;2023-04-06T05:46:04;15.13;;;11.85;;
52380;SDS011;38310;52.796;6.942;2023-04-06T05:48:30;16.08;;;11.80;;
52380;SDS011;38310;52.796;6.942;2023-04-06T05:50:56;15.68;;;11.75;;
52380;SDS011;38310;52.796;6.942;2023-04-06T05:53:22;13.68;;;11.35;;
52380;SDS011;38310;52.796;6.942;2023-04-06T05:55:47;13.85;;;12.18;;
52380;SDS011;38310;52.796;6.942;2023-04-06T05:58:13;15.88;;;12.18;;
52380;SDS011;38310;52.796;6.942;2023-04-06T06:00:39;15.32;;;12.90;;
52380;SDS011;38310;52.796;6.942;2023-04-06T06:03:05;17.27;;;12.45;;
52380;SDS011;38310;52.796;6.942;2023-04-06T06:05:31;17.10;;;13.40;;
52380;SDS011;38310;52.796;6.942;2023-04-06T06:07:56;20.85;;;13.70;;
52380;SDS011;38310;52.796;6.942;2023-04-06T06:10:22;16.10;;;12.52;;
52380;SDS011;38310;52.796;6.942;2023-04-06T06:12:48;16.67;;;12.48;;
52380;SDS011;38310;52.796;6.942;2023-04-06T06:15:14;17.20;;;12.73;;
52380;SDS011;38310;52.796;6.942;2023-04-06T06:17:40;17.50;;;13.15;;
52380;SDS011;38310;52.796;6.942;2023-04-06T06:20:06;16.60;;;13.02;;
52380;SDS011;38310;52.796;6.942;2023-04-06T06:22:32;16.92;;;12.32;;
52380;SDS011;38310;52.796;6.942;2023-04-06T06:24:58;16.35;;;12.35;;
52380;SDS011;38310;52.796;6.942;2023-04-06T06:27:24;14.50;;;11.68;;
52380;SDS011;38310;52.796;6.942;2023-04-06T06:29:49;16.08;;;12.18;;
52380;SDS011;38310;52.796;6.942;2023-04-06T06:32:15;20.63;;;13.15;;
52380;SDS011;38310;52.796;6.942;2023-04-06T06:34:41;17.48;;;12.35;;
52380;SDS011;38310;52.796;6.942;2023-04-06T06:37:07;18.95;;;12.93;;
52380;SDS011;38310;52.796;6.942;2023-04-06T06:39:32;19.08;;;13.23;;
52380;SDS011;38310;52.796;6.942;2023-04-06T06:41:58;19.00;;;13.63;;
52380;SDS011;38310;52.796;6.942;2023-04-06T06:44:26;17.98;;;13.90;;
52380;SDS011;38310;52.796;6.942;2023-04-06T06:46:52;17.95;;;13.07;;
52380;SDS011;38310;52.796;6.942;2023-04-06T06:49:18;17.13;;;13.15;;
52380;SDS011;38310;52.796;6.942;2023-04-06T06:51:44;18.17;;;13.63;;
52380;SDS011;38310;52.796;6.942;2023-04-06T06:54:11;16.02;;;12.40;;
52380;SDS011;38310;52.796;6.942;2023-04-06T06:56:38;19.38;;;13.82;;
52380;SDS011;38310;52.796;6.942;2023-04-06T06:59:04;17.75;;;13.95;;
52380;SDS011;38310;52.796;6.942;2023-04-06T07:01:34;21.70;;;14.52;;
52380;SDS011;38310;52.796;6.942;2023-04-06T07:04:00;16.67;;;13.93;;
52380;SDS011;38310;52.796;6.942;2023-04-06T07:06:25;16.80;;;12.63;;
52380;SDS011;38310;52.796;6.942;2023-04-06T07:08:51;19.85;;;13.75;;
52380;SDS011;38310;52.796;6.942;2023-04-06T07:11:17;18.85;;;13.15;;
52380;SDS011;38310;52.796;6.942;2023-04-06T07:13:42;21.23;;;13.57;;
52380;SDS011;38310;52.796;6.942;2023-04-06T07:16:08;20.75;;;14.32;;
52380;SDS011;38310;52.796;6.942;2023-04-06T07:18:34;20.88;;;13.50;;
52380;SDS011;38310;52.796;6.942;2023-04-06T07:21:00;23.85;;;15.25;;
52380;SDS011;38310;52.796;6.942;2023-04-06T07:23:25;21.23;;;13.65;;
52380;SDS011;38310;52.796;6.942;2023-04-06T07:25:51;19.83;;;14.23;;
52380;SDS011;38310;52.796;6.942;2023-04-06T07:28:18;18.70;;;14.00;;
52380;SDS011;38310;52.796;6.942;2023-04-06T07:30:45;18.55;;;13.30;;
52380;SDS011;38310;52.796;6.942;2023-04-06T07:33:10;16.20;;;13.80;;
52380;SDS011;38310;52.796;6.942;2023-04-06T07:35:37;16.55;;;13.73;;
52380;SDS011;38310;52.796;6.942;2023-04-06T07:38:02;20.40;;;14.23;;
52380;SDS011;38310;52.796;6.942;2023-04-06T07:40:29;22.95;;;14.20;;
52380;SDS011;38310;52.796;6.942;2023-04-06T07:42:56;16.77;;;13.93;;
52380;SDS011;38310;52.796;6.942;2023-04-06T07:45:22;19.23;;;14.30;;
52380;SDS011;38310;52.796;6.942;2023-04-06T07:47:48;16.55;;;13.48;;
52380;SDS011;38310;52.796;6.942;2023-04-06T07:50:15;18.58;;;14.45;;
52380;SDS011;38310;52.796;6.942;2023-04-06T07:52:41;17.98;;;14.05;;
52380;SDS011;38310;52.796;6.942;2023-04-06T07:55:06;18.02;;;13.73;;
52380;SDS011;38310;52.796;6.942;2023-04-06T07:57:33;18.27;;;13.75;;
52380;SDS011;38310;52.796;6.942;2023-04-06T07:59:58;16.13;;;12.57;;
52380;SDS011;38310;52.796;6.942;2023-04-06T08:02:24;19.25;;;14.50;;
52380;SDS011;38310;52.796;6.942;2023-04-06T08:04:50;20.40;;;15.18;;
52380;SDS011;38310;52.796;6.942;2023-04-06T08:07:16;19.48;;;14.02;;
52380;SDS011;38310;52.796;6.942;2023-04-06T08:09:42;20.20;;;14.55;;
52380;SDS011;38310;52.796;6.942;2023-04-06T08:12:07;16.67;;;14.25;;
52380;SDS011;38310;52.796;6.942;2023-04-06T08:14:33;19.02;;;14.25;;
52380;SDS011;38310;52.796;6.942;2023-04-06T08:17:00;17.00;;;14.02;;
52380;SDS011;38310;52.796;6.942;2023-04-06T08:19:26;19.67;;;13.60;;
52380;SDS011;38310;52.796;6.942;2023-04-06T08:21:52;16.70;;;14.25;;
52380;SDS011;38310;52.796;6.942;2023-04-06T08:24:18;18.02;;;14.32;;
52380;SDS011;38310;52.796;6.942;2023-04-06T08:26:43;17.20;;;14.10;;
52380;SDS011;38310;52.796;6.942;2023-04-06T08:29:09;16.40;;;14.52;;
52380;SDS011;38310;52.796;6.942;2023-04-06T08:31:35;20.17;;;14.38;;
52380;SDS011;38310;52.796;6.942;2023-04-06T08:34:02;18.75;;;14.18;;
52380;SDS011;38310;52.796;6.942;2023-04-06T08:36:29;16.98;;;13.80;;
52380;SDS011;38310;52.796;6.942;2023-04-06T08:38:55;19.05;;;13.98;;
52380;SDS011;38310;52.796;6.942;2023-04-06T08:41:21;20.08;;;13.63;;
52380;SDS011;38310;52.796;6.942;2023-04-06T08:43:48;17.13;;;13.60;;
52380;SDS011;38310;52.796;6.942;2023-04-06T08:46:23;19.20;;;15.02;;
52380;SDS011;38310;52.796;6.942;2023-04-06T08:48:59;18.23;;;13.80;;
52380;SDS011;38310;52.796;6.942;2023-04-06T08:51:26;16.73;;;13.25;;
52380;SDS011;38310;52.796;6.942;2023-04-06T08:53:53;17.52;;;13.35;;
52380;SDS011;38310;52.796;6.942;2023-04-06T08:56:23;17.50;;;14.02;;
52380;SDS011;38310;52.796;6.942;2023-04-06T08:58:50;17.73;;;13.98;;
52380;SDS011;38310;52.796;6.942;2023-04-06T09:01:20;15.95;;;13.10;;
52380;SDS011;38310;52.796;6.942;2023-04-06T09:03:47;15.02;;;13.38;;
52380;SDS011;38310;52.796;6.942;2023-04-06T09:06:14;19.85;;;13.98;;
52380;SDS011;38310;52.796;6.942;2023-04-06T09:08:40;15.88;;;13.70;;
52380;SDS011;38310;52.796;6.942;2023-04-06T09:11:07;19.83;;;13.68;;
52380;SDS011;38310;52.796;6.942;2023-04-06T09:13:50;16.38;;;13.20;;
52380;SDS011;38310;52.796;6.942;2023-04-06T09:16:17;16.35;;;13.73;;
52380;SDS011;38310;52.796;6.942;2023-04-06T09:18:43;20.10;;;14.00;;
52380;SDS011;38310;52.796;6.942;2023-04-06T09:21:10;19.85;;;14.07;;
52380;SDS011;38310;52.796;6.942;2023-04-06T09:23:36;19.88;;;13.10;;
52380;SDS011;38310;52.796;6.942;2023-04-06T09:28:45;19.23;;;13.68;;
52380;SDS011;38310;52.796;6.942;2023-04-06T09:31:16;19.83;;;13.25;;
52380;SDS011;38310;52.796;6.942;2023-04-06T09:33:46;20.20;;;13.40;;
52380;SDS011;38310;52.796;6.942;2023-04-06T09:36:12;16.17;;;12.63;;
52380;SDS011;38310;52.796;6.942;2023-04-06T09:38:56;19.48;;;14.13;;
52380;SDS011;38310;52.796;6.942;2023-04-06T09:41:24;16.50;;;12.55;;
52380;SDS011;38310;52.796;6.942;2023-04-06T09:44:10;18.52;;;14.05;;
52380;SDS011;38310;52.796;6.942;2023-04-06T09:46:42;15.77;;;13.18;;
52380;SDS011;38310;52.796;6.942;2023-04-06T09:49:11;16.35;;;12.98;;
52380;SDS011;38310;52.796;6.942;2023-04-06T09:51:38;17.50;;;13.48;;
52380;SDS011;38310;52.796;6.942;2023-04-06T09:54:15;19.13;;;13.90;;
52380;SDS011;38310;52.796;6.942;2023-04-06T09:59:20;18.80;;;13.25;;
52380;SDS011;38310;52.796;6.942;2023-04-06T10:01:52;22.63;;;15.70;;
52380;SDS011;38310;52.796;6.942;2023-04-06T10:07:27;22.90;;;15.88;;
52380;SDS011;38310;52.796;6.942;2023-04-06T10:09:54;23.92;;;14.75;;
52380;SDS011;38310;52.796;6.942;2023-04-06T10:12:20;26.52;;;16.60;;
52380;SDS011;38310;52.796;6.942;2023-04-06T10:14:46;21.05;;;15.40;;
52380;SDS011;38310;52.796;6.942;2023-04-06T10:17:12;22.67;;;16.27;;
52380;SDS011;38310;52.796;6.942;2023-04-06T10:22:16;23.60;;;17.27;;
52380;SDS011;38310;52.796;6.942;2023-04-06T10:24:49;23.95;;;16.95;;
52380;SDS011;38310;52.796;6.942;2023-04-06T10:27:15;24.98;;;17.48;;
52380;SDS011;38310;52.796;6.942;2023-04-06T10:29:47;25.20;;;17.75;;
52380;SDS011;38310;52.796;6.942;2023-04-06T10:32:16;27.30;;;18.20;;
52380;SDS011;38310;52.796;6.942;2023-04-06T10:34:41;22.73;;;17.67;;
52380;SDS011;38310;52.796;6.942;2023-04-06T10:37:14;24.95;;;16.98;;
52380;SDS011;38310;52.796;6.942;2023-04-06T10:40:13;20.67;;;16.98;;
52380;SDS011;38310;52.796;6.942;2023-04-06T10:42:42;25.33;;;17.27;;
52380;SDS011;38310;52.796;6.942;2023-04-06T10:45:18;21.90;;;17.73;;
52380;SDS011;38310;52.796;6.942;2023-04-06T10:47:45;28.58;;;18.15;;
52380;SDS011;38310;52.796;6.942;2023-04-06T10:50:12;23.83;;;17.48;;
52380;SDS011;38310;52.796;6.942;2023-04-06T10:52:41;26.10;;;18.65;;
52380;SDS011;38310;52.796;6.942;2023-04-06T10:55:08;26.63;;;19.08;;
52380;SDS011;38310;52.796;6.942;2023-04-06T10:57:37;27.98;;;19.08;;
52380;SDS011;38310;52.796;6.942;2023-04-06T11:00:06;41.30;;;18.67;;
52380;SDS011;38310;52.796;6.942;2023-04-06T11:02:33;28.48;;;19.60;;
52380;SDS011;38310;52.796;6.942;2023-04-06T11:05:00;30.67;;;19.85;;
52380;SDS011;38310;52.796;6.942;2023-04-06T11:07:26;27.50;;;19.02;;
52380;SDS011;38310;52.796;6.942;2023-04-06T11:09:54;29.02;;;19.95;;
52380;SDS011;38310;52.796;6.942;2023-04-06T11:12:24;26.00;;;19.48;;
52380;SDS011;38310;52.796;6.942;2023-04-06T11:15:00;26.45;;;18.80;;
52380;SDS011;38310;52.796;6.942;2023-04-06T11:17:34;26.42;;;19.80;;
52380;SDS011;38310;52.796;6.942;2023-04-06T11:20:02;24.85;;;18.88;;
52380;SDS011;38310;52.796;6.942;2023-04-06T11:22:29;24.58;;;17.83;;
52380;SDS011;38310;52.796;6.942;2023-04-06T11:25:05;25.02;;;19.45;;
52380;SDS011;38310;52.796;6.942;2023-04-06T11:27:32;26.08;;;19.33;;
52380;SDS011;38310;52.796;6.942;2023-04-06T11:29:59;24.63;;;19.55;;
52380;SDS011;38310;52.796;6.942;2023-04-06T11:32:26;28.35;;;19.77;;
52380;SDS011;38310;52.796;6.942;2023-04-06T11:34:51;26.98;;;18.95;;
52380;SDS011;38310;52.796;6.942;2023-04-06T11:37:17;27.77;;;19.60;;
52380;SDS011;38310;52.796;6.942;2023-04-06T11:42:26;27.40;;;20.13;;
52380;SDS011;38310;52.796;6.942;2023-04-06T11:44:56;28.55;;;19.92;;
52380;SDS011;38310;52.796;6.942;2023-04-06T11:47:30;26.42;;;19.23;;
52380;SDS011;38310;52.796;6.942;2023-04-06T11:50:05;26.65;;;18.98;;
52380;SDS011;38310;52.796;6.942;2023-04-06T11:52:34;26.40;;;19.95;;
52380;SDS011;38310;52.796;6.942;2023-04-06T11:55:09;26.55;;;19.77;;
52380;SDS011;38310;52.796;6.942;2023-04-06T11:57:37;28.67;;;19.40;;
52380;SDS011;38310;52.796;6.942;2023-04-06T12:00:03;31.48;;;21.10;;
52380;SDS011;38310;52.796;6.942;2023-04-06T12:02:30;29.73;;;21.15;;
52380;SDS011;38310;52.796;6.942;2023-04-06T12:04:57;27.25;;;20.15;;
52380;SDS011;38310;52.796;6.942;2023-04-06T12:07:23;27.23;;;19.77;;
52380;SDS011;38310;52.796;6.942;2023-04-06T12:09:48;24.65;;;19.83;;
52380;SDS011;38310;52.796;6.942;2023-04-06T12:12:14;29.30;;;19.85;;
52380;SDS011;38310;52.796;6.942;2023-04-06T12:14:40;27.95;;;19.63;;
52380;SDS011;38310;52.796;6.942;2023-04-06T12:17:06;28.65;;;20.65;;
52380;SDS011;38310;52.796;6.942;2023-04-06T12:19:31;29.15;;;20.88;;
52380;SDS011;38310;52.796;6.942;2023-04-06T12:21:57;29.67;;;21.10;;
52380;SDS011;38310;52.796;6.942;2023-04-06T12:24:23;31.83;;;21.40;;
52380;SDS011;38310;52.796;6.942;2023-04-06T12:26:48;28.05;;;21.05;;
52380;SDS011;38310;52.796;6.942;2023-04-06T12:29:14;27.98;;;20.63;;
52380;SDS011;38310;52.796;6.942;2023-04-06T12:31:40;32.80;;;20.50;;
52380;SDS011;38310;52.796;6.942;2023-04-06T12:34:08;28.33;;;20.30;;
52380;SDS011;38310;52.796;6.942;2023-04-06T12:36:33;28.05;;;20.42;;
52380;SDS011;38310;52.796;6.942;2023-04-06T12:39:00;28.30;;;20.20;;
52380;SDS011;38310;52.796;6.942;2023-04-06T12:41:26;28.13;;;20.08;;
52380;SDS011;38310;52.796;6.942;2023-04-06T12:43:52;27.70;;;19.80;;
52380;SDS011;38310;52.796;6.942;2023-04-06T12:46:18;29.88;;;20.70;;
52380;SDS011;38310;52.796;6.942;2023-04-06T12:48:44;28.80;;;19.33;;
52380;SDS011;38310;52.796;6.942;2023-04-06T12:51:11;28.70;;;20.35;;
52380;SDS011;38310;52.796;6.942;2023-04-06T12:53:37;25.70;;;19.25;;
52380;SDS011;38310;52.796;6.942;2023-04-06T12:56:09;28.17;;;19.33;;
52380;SDS011;38310;52.796;6.942;2023-04-06T12:58:39;29.25;;;20.08;;
52380;SDS011;38310;52.796;6.942;2023-04-06T13:01:07;25.20;;;19.45;;
52380;SDS011;38310;52.796;6.942;2023-04-06T13:03:33;29.52;;;20.10;;
52380;SDS011;38310;52.796;6.942;2023-04-06T13:05:59;27.70;;;19.88;;
52380;SDS011;38310;52.796;6.942;2023-04-06T13:08:26;25.73;;;18.90;;
52380;SDS011;38310;52.796;6.942;2023-04-06T13:10:52;27.15;;;19.67;;
52380;SDS011;38310;52.796;6.942;2023-04-06T13:13:22;25.77;;;19.00;;
52380;SDS011;38310;52.796;6.942;2023-04-06T13:15:49;26.33;;;20.40;;
52380;SDS011;38310;52.796;6.942;2023-04-06T13:18:15;30.02;;;21.05;;
52380;SDS011;38310;52.796;6.942;2023-04-06T13:20:41;26.83;;;20.38;;
52380;SDS011;38310;52.796;6.942;2023-04-06T13:23:07;27.52;;;19.92;;
52380;SDS011;38310;52.796;6.942;2023-04-06T13:25:33;27.20;;;19.80;;
52380;SDS011;38310;52.796;6.942;2023-04-06T13:27:59;28.08;;;19.63;;
52380;SDS011;38310;52.796;6.942;2023-04-06T13:30:25;28.83;;;18.90;;
52380;SDS011;38310;52.796;6.942;2023-04-06T13:32:51;29.33;;;20.20;;
52380;SDS011;38310;52.796;6.942;2023-04-06T13:35:17;30.35;;;20.48;;
52380;SDS011;38310;52.796;6.942;2023-04-06T13:37:43;27.92;;;19.38;;
52380;SDS011;38310;52.796;6.942;2023-04-06T13:40:10;28.98;;;19.92;;
52380;SDS011;38310;52.796;6.942;2023-04-06T13:42:36;30.38;;;20.45;;
52380;SDS011;38310;52.796;6.942;2023-04-06T13:45:03;27.63;;;19.05;;
52380;SDS011;38310;52.796;6.942;2023-04-06T13:47:29;28.42;;;20.90;;
52380;SDS011;38310;52.796;6.942;2023-04-06T13:49:55;30.33;;;20.55;;
52380;SDS011;38310;52.796;6.942;2023-04-06T13:52:21;30.77;;;20.60;;
52380;SDS011;38310;52.796;6.942;2023-04-06T13:54:47;30.45;;;20.15;;
52380;SDS011;38310;52.796;6.942;2023-04-06T13:57:14;30.17;;;20.40;;
52380;SDS011;38310;52.796;6.942;2023-04-06T13:59:40;31.48;;;21.48;;
52380;SDS011;38310;52.796;6.942;2023-04-06T14:02:06;26.50;;;18.67;;
52380;SDS011;38310;52.796;6.942;2023-04-06T14:04:33;29.08;;;19.75;;
52380;SDS011;38310;52.796;6.942;2023-04-06T14:07:00;30.63;;;21.42;;
52380;SDS011;38310;52.796;6.942;2023-04-06T14:09:30;35.25;;;21.75;;
52380;SDS011;38310;52.796;6.942;2023-04-06T14:11:56;27.77;;;17.77;;
52380;SDS011;38310;52.796;6.942;2023-04-06T14:14:22;22.48;;;16.17;;
52380;SDS011;38310;52.796;6.942;2023-04-06T14:16:48;25.65;;;16.73;;
52380;SDS011;38310;52.796;6.942;2023-04-06T14:19:15;23.50;;;16.83;;
52380;SDS011;38310;52.796;6.942;2023-04-06T14:21:45;26.27;;;17.50;;
52380;SDS011;38310;52.796;6.942;2023-04-06T14:24:11;29.92;;;17.60;;
52380;SDS011;38310;52.796;6.942;2023-04-06T14:26:39;27.92;;;18.40;;
52380;SDS011;38310;52.796;6.942;2023-04-06T14:29:06;28.67;;;18.38;;
52380;SDS011;38310;52.796;6.942;2023-04-06T14:31:33;27.42;;;17.90;;
52380;SDS011;38310;52.796;6.942;2023-04-06T14:34:00;28.08;;;17.17;;